createdAt,value
2019-04-24T00:04:10.689Z,19.88
2019-04-24T00:06:44.296Z,19.84
2019-04-24T00:09:12.764Z,19.80
2019-04-24T00:12:06.566Z,19.80
2019-04-24T00:17:29.144Z,19.70
2019-04-24T00:22:39.303Z,19.62
2019-04-24T00:25:41.050Z,19.56
2019-04-24T00:27:42.702Z,19.54
2019-04-24T00:30:08.659Z,19.43
2019-04-24T00:32:50.700Z,19.32
2019-04-24T00:37:58.671Z,19.29
2019-04-24T00:40:16.300Z,19.25
2019-04-24T00:43:01.949Z,19.20
2019-04-24T00:48:00.765Z,19.19
2019-04-24T00:50:14.834Z,19.21
2019-04-24T00:53:34.282Z,19.18
2019-04-24T00:55:47.357Z,19.13
2019-04-24T00:57:55.956Z,19.09
2019-04-24T01:00:37.497Z,19.08
2019-04-24T01:03:22.466Z,19.11
2019-04-24T01:08:47.088Z,19.05
2019-04-24T01:16:34.563Z,18.93
2019-04-24T01:18:59.746Z,18.93
2019-04-24T01:21:43.011Z,18.97
2019-04-24T01:26:35.289Z,18.88
2019-04-24T01:29:12.526Z,18.86
2019-04-24T01:31:46.250Z,18.85
2019-04-24T01:34:37.823Z,18.78
2019-04-24T01:37:30.505Z,18.80
2019-04-24T01:40:00.339Z,18.76
2019-04-24T01:45:16.638Z,18.66
2019-04-24T01:47:38.145Z,18.60
2019-04-24T01:50:10.418Z,18.59
2019-04-24T01:55:18.478Z,18.54
2019-04-24T01:57:41.245Z,18.54
2019-04-24T02:00:14.399Z,18.52
2019-04-24T02:05:16.571Z,18.43
2019-04-24T02:08:14.656Z,18.42
2019-04-24T02:10:50.599Z,18.38
2019-04-24T02:13:16.942Z,18.38
2019-04-24T02:15:38.837Z,18.38
2019-04-24T02:23:16.718Z,18.32
2019-04-24T02:28:24.130Z,18.26
2019-04-24T02:42:31.858Z,18.16
2019-04-24T02:57:24.302Z,18.05
2019-04-24T02:59:51.677Z,18.03
2019-04-24T03:02:33.945Z,18.07
2019-04-24T03:17:38.447Z,17.90
2019-04-24T03:20:29.609Z,17.85
2019-04-24T03:25:47.238Z,17.76
2019-04-24T03:28:09.590Z,17.72
2019-04-24T03:31:02.243Z,17.62
2019-04-24T03:43:39.294Z,17.52
2019-04-24T03:59:47.795Z,17.43
2019-04-24T04:02:50.327Z,17.42
2019-04-24T04:08:00.590Z,17.36
2019-04-24T04:15:20.424Z,17.31
2019-04-24T04:18:22.623Z,17.31
2019-04-24T04:28:21.227Z,17.31
2019-04-24T04:31:31.092Z,17.31
2019-04-24T04:41:55.021Z,17.38
2019-04-24T05:03:26.440Z,17.44
2019-04-24T05:06:38.042Z,17.34
2019-04-24T05:19:18.787Z,17.24
2019-04-24T05:27:12.299Z,17.36
2019-04-24T05:29:13.724Z,17.46
2019-04-24T05:31:48.631Z,17.53
2019-04-24T05:34:19.332Z,17.50
2019-04-24T05:36:58.130Z,17.51
2019-04-24T05:39:47.287Z,17.55
2019-04-24T05:42:17.613Z,17.51
2019-04-24T05:44:31.097Z,17.57
2019-04-24T05:47:19.205Z,17.56
2019-04-24T05:50:00.982Z,17.59
2019-04-24T05:52:39.449Z,17.58
2019-04-24T05:55:17.943Z,17.61
2019-04-24T05:57:57.097Z,17.67
2019-04-24T06:00:23.603Z,17.78
2019-04-24T06:11:04.897Z,18.08
2019-04-24T06:16:27.667Z,18.02
2019-04-24T06:24:21.449Z,17.98
2019-04-24T06:26:47.338Z,18.02
2019-04-24T06:29:38.000Z,18.16
2019-04-24T06:34:54.758Z,18.28
2019-04-24T06:37:27.761Z,18.35
2019-04-24T06:40:32.132Z,18.47
2019-04-24T06:50:49.118Z,18.88
2019-04-24T06:53:00.520Z,18.98
2019-04-24T06:55:38.223Z,19.08
2019-04-24T07:04:07.592Z,19.31
2019-04-24T07:22:31.131Z,19.52
2019-04-24T07:25:49.461Z,19.51
2019-04-24T07:30:41.111Z,19.62
2019-04-24T07:33:16.680Z,19.76
2019-04-24T07:35:56.894Z,19.81
2019-04-24T07:38:26.936Z,19.90
2019-04-24T07:41:06.165Z,19.99
2019-04-24T07:46:10.209Z,20.06
2019-04-24T07:48:51.938Z,20.14
2019-04-24T07:51:14.767Z,20.17
2019-04-24T07:56:52.820Z,20.23
2019-04-24T07:59:41.637Z,20.16
2019-04-24T08:02:06.526Z,20.21
2019-04-24T08:22:30.535Z,20.30
2019-04-24T08:27:37.477Z,20.31
2019-04-24T08:29:59.908Z,20.34
2019-04-24T08:32:32.742Z,20.36
2019-04-24T08:34:58.056Z,20.40
2019-04-24T08:37:53.807Z,20.43
2019-04-24T08:40:15.056Z,20.49
2019-04-24T08:43:12.155Z,20.61
2019-04-24T08:45:58.782Z,20.73
2019-04-24T08:48:48.480Z,20.89
2019-04-24T08:56:35.942Z,21.23
2019-04-24T08:59:07.813Z,21.36
2019-04-24T09:02:00.125Z,21.50
2019-04-24T09:07:36.970Z,21.76
2019-04-24T09:10:19.721Z,21.84
2019-04-24T09:13:11.358Z,21.97
2019-04-24T09:15:38.633Z,22.03
2019-04-24T09:18:14.259Z,22.11
2019-04-24T09:20:33.798Z,22.22
2019-04-24T09:23:02.964Z,22.33
2019-04-24T09:26:00.717Z,22.44
2019-04-24T09:28:34.620Z,22.51
2019-04-24T09:30:57.203Z,22.61
2019-04-24T09:36:33.568Z,22.64
2019-04-24T09:41:45.305Z,22.68
2019-04-24T09:46:35.172Z,22.84
2019-04-24T09:48:58.409Z,22.96
2019-04-24T09:51:36.927Z,23.13
2019-04-24T09:59:38.123Z,23.52
2019-04-24T10:10:14.251Z,23.97
2019-04-24T10:15:39.692Z,24.27
2019-04-24T10:17:50.877Z,24.44
2019-04-24T10:20:22.437Z,24.62
2019-04-24T10:23:29.303Z,24.75
2019-04-24T10:25:42.151Z,24.86
2019-04-24T10:29:06.666Z,25.04
2019-04-24T10:31:17.050Z,25.21
2019-04-24T10:34:05.752Z,25.32
2019-04-24T10:37:01.599Z,25.37
2019-04-24T10:40:09.148Z,25.55
2019-04-24T10:42:30.277Z,25.70
2019-04-24T10:48:01.714Z,26.07
2019-04-24T10:50:31.676Z,26.28
2019-04-24T10:53:13.252Z,26.43
2019-04-24T10:55:59.530Z,26.49
2019-04-24T10:58:14.185Z,26.51
2019-04-24T11:01:18.781Z,26.62
2019-04-24T11:06:47.470Z,26.91
2019-04-24T11:09:12.627Z,27.14
2019-04-24T11:12:01.889Z,27.28
2019-04-24T11:14:35.391Z,27.36
2019-04-24T11:17:22.612Z,27.31
2019-04-24T11:20:26.648Z,27.32
2019-04-24T11:23:18.663Z,27.44
2019-04-24T11:28:55.869Z,27.98
2019-04-24T11:31:34.851Z,28.17
2019-04-24T11:34:34.301Z,28.39
2019-04-24T11:40:22.024Z,28.79
2019-04-24T11:42:10.208Z,29.03
2019-04-24T11:44:54.858Z,29.21
2019-04-24T11:47:38.585Z,29.23
2019-04-24T11:53:09.356Z,29.29
2019-04-24T12:00:40.993Z,29.57
2019-04-24T12:03:38.211Z,29.54
2019-04-24T12:06:14.053Z,29.52
2019-04-24T12:14:05.566Z,30.38
2019-04-24T12:16:53.357Z,30.60
2019-04-24T12:24:50.267Z,31.11
2019-04-24T12:27:32.787Z,31.07
2019-04-24T12:29:55.780Z,31.16
2019-04-24T12:32:42.727Z,31.39
2019-04-24T12:35:22.147Z,31.40
2019-04-24T12:37:57.604Z,31.27
2019-04-24T12:40:51.789Z,31.38
2019-04-24T12:43:08.660Z,31.56
2019-04-24T12:45:48.341Z,31.81
2019-04-24T12:47:58.707Z,32.00
2019-04-24T12:50:43.792Z,32.14
2019-04-24T12:55:58.993Z,32.42
2019-04-24T12:58:50.661Z,32.59
2019-04-24T13:04:47.830Z,32.64
2019-04-24T13:07:19.653Z,33.00
2019-04-24T13:09:59.572Z,33.25
2019-04-24T13:18:13.067Z,34.04
2019-04-24T13:20:17.820Z,34.30
2019-04-24T13:22:53.139Z,34.59
2019-04-24T13:29:13.584Z,35.08
2019-04-24T13:31:56.479Z,35.20
2019-04-24T13:34:25.466Z,34.91
2019-04-24T13:39:37.844Z,34.86
2019-04-24T13:44:31.793Z,35.43
2019-04-24T13:47:04.729Z,35.06
2019-04-24T13:49:30.289Z,34.73
2019-04-24T13:52:23.287Z,34.59
2019-04-24T13:54:40.177Z,34.59
2019-04-24T13:57:07.193Z,34.35
2019-04-24T13:59:46.384Z,34.28
2019-04-24T14:02:16.052Z,34.51
2019-04-24T14:04:47.662Z,34.52
2019-04-24T14:17:26.307Z,34.31
2019-04-24T14:22:54.443Z,35.09
2019-04-24T14:28:05.040Z,35.23
2019-04-24T14:30:35.855Z,34.97
2019-04-24T14:33:06.851Z,34.36
2019-04-24T14:35:38.124Z,34.12
2019-04-24T14:38:19.405Z,33.72
2019-04-24T14:40:35.932Z,33.48
2019-04-24T14:43:28.536Z,33.15
2019-04-24T14:49:08.527Z,32.16
2019-04-24T14:51:21.413Z,31.93
2019-04-24T14:53:54.043Z,31.85
2019-04-24T14:56:20.773Z,31.75
2019-04-24T14:59:08.074Z,31.80
2019-04-24T15:01:25.320Z,32.22
2019-04-24T15:04:15.190Z,32.45
2019-04-24T15:07:20.891Z,32.62
2019-04-24T15:10:32.874Z,32.63
2019-04-24T15:13:44.695Z,32.20
2019-04-24T15:19:06.778Z,32.30
2019-04-24T15:21:21.905Z,31.79
2019-04-24T15:24:16.963Z,31.41
2019-04-24T15:26:25.874Z,31.09
2019-04-24T15:29:03.903Z,30.74
2019-04-24T15:31:31.687Z,30.63
2019-04-24T15:34:08.670Z,30.53
2019-04-24T15:36:33.814Z,30.38
2019-04-24T15:42:05.881Z,30.38
2019-04-24T15:47:22.380Z,31.31
2019-04-24T15:49:48.607Z,31.76
2019-04-24T15:51:42.148Z,32.22
2019-04-24T15:54:11.630Z,32.01
2019-04-24T15:56:40.916Z,31.71
2019-04-24T15:59:37.199Z,31.41
2019-04-24T16:02:24.262Z,31.12
2019-04-24T16:04:54.162Z,30.81
2019-04-24T16:07:14.856Z,30.49
2019-04-24T16:09:47.100Z,30.07
2019-04-24T16:12:18.912Z,28.55
2019-04-24T16:15:17.005Z,26.69
2019-04-24T16:17:56.823Z,25.92
2019-04-24T16:22:53.386Z,24.77
2019-04-24T16:25:27.671Z,23.99
2019-04-24T16:28:08.450Z,22.94
2019-04-24T16:30:31.501Z,22.96
2019-04-24T16:33:11.082Z,22.68
2019-04-24T16:35:41.470Z,22.28
2019-04-24T16:38:26.814Z,21.92
2019-04-24T16:43:36.869Z,21.21
2019-04-24T16:46:38.289Z,20.91
2019-04-24T16:48:37.435Z,20.71
2019-04-24T16:51:27.479Z,20.20
2019-04-24T16:53:55.854Z,19.97
2019-04-24T16:56:32.714Z,19.73
2019-04-24T16:58:53.608Z,19.27
2019-04-24T17:11:57.014Z,18.29
2019-04-24T17:19:53.157Z,17.77
2019-04-24T17:22:17.752Z,17.86
2019-04-24T17:25:29.977Z,17.95
2019-04-24T17:28:33.020Z,18.02
2019-04-24T17:33:31.611Z,18.21
2019-04-24T17:36:33.476Z,18.02
2019-04-24T17:43:22.105Z,17.73
2019-04-24T17:46:04.862Z,17.71
2019-04-24T17:48:53.097Z,17.56
2019-04-24T17:51:21.931Z,17.18
2019-04-24T17:54:05.001Z,17.39
2019-04-24T17:56:42.617Z,17.45
2019-04-24T17:58:58.546Z,17.31
2019-04-24T18:01:28.327Z,17.31
2019-04-24T18:03:57.986Z,17.26
2019-04-24T18:06:27.431Z,17.36
2019-04-24T18:09:19.443Z,17.24
2019-04-24T18:11:33.441Z,17.01
2019-04-24T18:14:04.639Z,16.85
2019-04-24T18:16:35.152Z,16.51
2019-04-24T18:19:07.071Z,16.06
2019-04-24T18:21:41.823Z,15.82
2019-04-24T18:24:36.390Z,15.89
2019-04-24T18:27:05.793Z,15.83
2019-04-24T18:29:35.517Z,15.68
2019-04-24T18:32:05.700Z,15.68
2019-04-24T18:34:37.238Z,15.53
2019-04-24T18:37:06.665Z,15.55
2019-04-24T18:39:45.686Z,15.50
2019-04-24T18:42:16.218Z,15.78
2019-04-24T18:44:45.656Z,15.96
2019-04-24T18:47:15.193Z,15.95
2019-04-24T18:49:44.896Z,15.88
2019-04-24T18:52:14.133Z,16.06
2019-04-24T18:54:43.626Z,16.26
2019-04-24T18:57:14.270Z,16.39
2019-04-24T18:59:43.463Z,16.47
2019-04-24T19:02:14.091Z,16.49
2019-04-24T19:04:44.891Z,16.53
2019-04-24T19:07:14.894Z,16.61
2019-04-24T19:09:44.081Z,16.54
2019-04-24T19:12:13.866Z,16.00
2019-04-24T19:14:43.264Z,16.23
2019-04-24T19:17:15.325Z,16.45
2019-04-24T19:19:48.046Z,16.27
2019-04-24T19:33:29.713Z,16.26
2019-04-24T19:36:01.447Z,16.34
2019-04-24T19:38:41.923Z,16.29
2019-04-24T19:41:15.137Z,16.47
2019-04-24T19:43:44.691Z,16.65
2019-04-24T19:46:16.674Z,16.42
2019-04-24T19:48:44.900Z,16.67
2019-04-24T19:51:16.529Z,16.73
2019-04-24T19:53:45.975Z,16.71
2019-04-24T19:56:15.928Z,16.70
2019-04-24T19:58:49.859Z,16.56
2019-04-24T20:01:21.908Z,16.89
2019-04-24T20:03:53.209Z,16.72
2019-04-24T20:06:23.506Z,16.69
2019-04-24T20:08:53.346Z,16.44
2019-04-24T20:11:41.303Z,16.80
2019-04-24T20:14:12.501Z,16.67
2019-04-24T20:16:47.909Z,16.62
2019-04-24T20:19:18.193Z,16.68
2019-04-24T20:21:48.361Z,16.62
2019-04-24T20:24:18.373Z,16.32
2019-04-24T20:26:47.807Z,16.18
2019-04-24T20:29:18.313Z,16.30
2019-04-24T20:31:47.844Z,16.31
2019-04-24T20:34:17.225Z,16.22
2019-04-24T20:36:46.713Z,16.14
2019-04-24T20:39:16.907Z,15.83
2019-04-24T20:41:46.255Z,15.96
2019-04-24T20:44:15.890Z,16.10
2019-04-24T20:46:45.434Z,15.74
2019-04-24T20:49:14.666Z,16.05
2019-04-24T20:51:44.036Z,15.94
2019-04-24T20:54:14.702Z,15.99
2019-04-24T20:56:44.113Z,16.13
2019-04-24T20:59:13.788Z,16.11
2019-04-24T21:01:44.826Z,16.04
2019-04-24T21:04:13.981Z,15.84
2019-04-24T21:06:49.783Z,15.97
2019-04-24T21:09:35.400Z,15.79
2019-04-24T21:12:05.841Z,15.67
2019-04-24T21:14:35.476Z,15.78
2019-04-24T21:17:05.028Z,15.78
2019-04-24T21:19:34.320Z,15.41
2019-04-24T21:22:06.218Z,15.42
2019-04-24T21:24:35.482Z,15.56
2019-04-24T21:27:04.808Z,15.50
2019-04-24T21:29:36.793Z,15.56
2019-04-24T21:32:05.980Z,15.38
2019-04-24T21:34:35.232Z,15.51
2019-04-24T21:37:04.951Z,15.26
2019-04-24T21:39:34.259Z,15.50
2019-04-24T21:42:05.984Z,15.52
2019-04-24T21:44:36.223Z,15.26
2019-04-24T21:47:05.564Z,15.31
2019-04-24T21:49:37.884Z,15.45
2019-04-24T21:52:07.110Z,15.35
2019-04-24T21:54:36.295Z,15.33
2019-04-24T21:57:08.743Z,15.30
2019-04-24T21:59:38.281Z,15.41
2019-04-24T22:02:25.230Z,15.55
2019-04-24T22:05:19.590Z,15.46
2019-04-24T22:07:49.023Z,15.40
2019-04-24T22:10:21.353Z,15.65
2019-04-24T22:12:52.223Z,15.50
2019-04-24T22:15:22.768Z,15.46
2019-04-24T22:17:52.647Z,15.59
2019-04-24T22:20:47.314Z,15.41
2019-04-24T22:23:48.639Z,15.32
2019-04-24T22:26:21.234Z,15.11
2019-04-24T22:28:52.870Z,15.26
2019-04-24T22:31:46.330Z,15.20
2019-04-24T22:34:48.926Z,15.18
2019-04-24T22:37:18.389Z,15.02
2019-04-24T22:39:56.941Z,15.05
2019-04-24T22:42:29.632Z,15.06
2019-04-24T22:45:00.281Z,15.07
2019-04-24T22:47:30.794Z,15.03
2019-04-24T22:50:05.099Z,14.97
2019-04-24T22:52:34.846Z,14.75
2019-04-24T22:55:04.049Z,14.99
2019-04-24T22:57:34.851Z,14.87
2019-04-24T23:00:08.015Z,14.80
2019-04-24T23:02:37.235Z,14.85
2019-04-24T23:05:08.777Z,14.90
2019-04-24T23:07:39.512Z,14.85
2019-04-24T23:10:08.750Z,14.82
2019-04-24T23:12:38.814Z,14.82
2019-04-24T23:15:08.845Z,14.73
2019-04-24T23:17:38.184Z,14.94
2019-04-24T23:20:13.979Z,14.90
2019-04-24T23:22:51.666Z,14.96
2019-04-24T23:25:32.927Z,14.90
2019-04-24T23:28:28.894Z,14.89
2019-04-24T23:31:16.139Z,15.07
2019-04-24T23:33:49.556Z,14.91
2019-04-24T23:36:18.814Z,14.94
2019-04-24T23:38:48.054Z,15.05
2019-04-24T23:41:19.818Z,14.84
2019-04-24T23:43:49.045Z,14.72
2019-04-24T23:46:18.370Z,14.77
2019-04-24T23:48:49.913Z,14.40
2019-04-24T23:51:19.152Z,14.38
2019-04-24T23:53:51.614Z,14.20
2019-04-24T23:56:37.661Z,14.45
2019-04-24T23:59:07.176Z,14.35
